createdAt,value
2018-11-04T00:00:00.073Z,7.00
2018-11-04T00:02:28.649Z,6.90
2018-11-04T00:04:57.287Z,6.90
2018-11-04T00:07:26.946Z,6.90
2018-11-04T00:09:55.566Z,6.80
2018-11-04T00:12:24.270Z,6.90
2018-11-04T00:14:52.988Z,7.00
2018-11-04T00:17:21.744Z,7.00
2018-11-04T00:19:50.632Z,7.00
2018-11-04T00:22:19.311Z,6.90
2018-11-04T00:24:48.116Z,7.00
2018-11-04T00:27:17.026Z,7.00
2018-11-04T00:29:45.740Z,7.00
2018-11-04T00:32:14.445Z,6.90
2018-11-04T00:34:43.118Z,6.90
2018-11-04T00:37:11.676Z,6.90
2018-11-04T00:39:41.171Z,6.90
2018-11-04T00:42:10.423Z,7.00
2018-11-04T00:44:39.755Z,7.00
2018-11-04T00:47:08.628Z,7.00
2018-11-04T00:49:37.304Z,7.00
2018-11-04T00:52:06.016Z,7.00
2018-11-04T00:54:34.687Z,7.00
2018-11-04T00:57:03.359Z,7.00
2018-11-04T00:59:31.990Z,7.00
2018-11-04T01:02:00.742Z,7.00
2018-11-04T01:04:29.384Z,7.00
2018-11-04T01:06:57.991Z,6.90
2018-11-04T01:09:26.787Z,7.00
2018-11-04T01:11:56.469Z,7.00
2018-11-04T01:14:25.097Z,7.00
2018-11-04T01:16:53.775Z,7.00
2018-11-04T01:19:22.472Z,7.00
2018-11-04T01:21:51.161Z,7.00
2018-11-04T01:24:19.902Z,7.00
2018-11-04T01:26:48.550Z,7.00
2018-11-04T01:29:17.210Z,6.90
2018-11-04T01:31:45.891Z,6.90
2018-11-04T01:34:14.793Z,6.90
2018-11-04T01:36:43.419Z,6.90
2018-11-04T01:39:12.294Z,6.90
2018-11-04T01:41:40.952Z,6.80
2018-11-04T01:44:11.376Z,6.90
2018-11-04T01:46:41.112Z,6.90
2018-11-04T01:49:09.755Z,6.90
2018-11-04T01:51:38.399Z,6.80
2018-11-04T01:54:07.071Z,6.90
2018-11-04T01:56:35.976Z,6.90
2018-11-04T01:59:05.207Z,6.90
2018-11-04T02:01:34.205Z,6.90
2018-11-04T02:04:02.849Z,6.90
2018-11-04T02:06:31.476Z,6.80
2018-11-04T02:09:00.182Z,6.80
2018-11-04T02:11:28.911Z,6.80
2018-11-04T02:13:58.068Z,6.80
2018-11-04T02:16:26.701Z,6.80
2018-11-04T02:18:55.591Z,6.90
2018-11-04T02:21:24.548Z,6.90
2018-11-04T02:23:53.215Z,7.00
2018-11-04T02:26:28.402Z,6.90
2018-11-04T02:28:57.333Z,7.00
2018-11-04T02:31:26.111Z,7.00
2018-11-04T02:33:55.035Z,7.00
2018-11-04T02:36:24.041Z,7.00
2018-11-04T02:38:52.718Z,7.00
2018-11-04T02:41:21.383Z,7.10
2018-11-04T02:43:50.029Z,7.10
2018-11-04T02:46:18.752Z,7.00
2018-11-04T02:48:47.451Z,7.00
2018-11-04T02:51:16.140Z,7.00
2018-11-04T02:53:44.820Z,7.00
2018-11-04T02:56:13.522Z,7.00
2018-11-04T02:58:42.176Z,7.00
2018-11-04T03:01:10.815Z,7.10
2018-11-04T03:03:39.540Z,7.10
2018-11-04T03:06:08.275Z,7.10
2018-11-04T03:08:36.898Z,7.00
2018-11-04T03:11:05.595Z,7.00
2018-11-04T03:13:34.235Z,7.10
2018-11-04T03:16:03.051Z,7.20
2018-11-04T03:18:31.985Z,7.20
2018-11-04T03:21:01.365Z,7.30
2018-11-04T03:23:30.280Z,7.30
2018-11-04T03:25:58.971Z,7.40
2018-11-04T03:28:27.666Z,7.40
2018-11-04T03:30:56.340Z,7.40
2018-11-04T03:33:25.034Z,7.40
2018-11-04T03:35:53.720Z,7.50
2018-11-04T03:38:22.537Z,7.50
2018-11-04T03:40:52.102Z,7.50
2018-11-04T03:43:21.583Z,7.50
2018-11-04T03:45:50.810Z,7.60
2018-11-04T03:48:20.074Z,7.50
2018-11-04T03:50:48.900Z,7.50
2018-11-04T03:53:17.578Z,7.60
2018-11-04T03:55:46.243Z,7.60
2018-11-04T03:58:14.892Z,7.70
2018-11-04T04:00:43.671Z,7.70
2018-11-04T04:03:12.316Z,7.70
2018-11-04T04:05:40.983Z,7.80
2018-11-04T04:08:09.657Z,7.90
2018-11-04T04:10:38.391Z,7.90
2018-11-04T04:13:07.074Z,7.90
2018-11-04T04:15:35.679Z,8.00
2018-11-04T04:18:04.324Z,8.00
2018-11-04T04:20:33.103Z,8.10
2018-11-04T04:23:02.720Z,8.10
2018-11-04T04:25:32.340Z,8.20
2018-11-04T04:28:00.960Z,8.30
2018-11-04T04:30:29.769Z,8.30
2018-11-04T04:32:58.396Z,8.30
2018-11-04T04:35:27.599Z,8.30
2018-11-04T04:37:56.355Z,8.40
2018-11-04T04:40:25.044Z,8.40
2018-11-04T04:42:53.788Z,8.50
2018-11-04T04:45:22.412Z,8.50
2018-11-04T04:47:51.077Z,8.50
2018-11-04T04:50:19.721Z,8.50
2018-11-04T04:52:48.471Z,8.50
2018-11-04T04:55:17.151Z,8.50
2018-11-04T04:57:45.751Z,8.60
2018-11-04T05:00:14.571Z,8.50
2018-11-04T05:02:43.288Z,8.50
2018-11-04T05:05:11.895Z,8.50
2018-11-04T05:07:40.514Z,8.50
2018-11-04T05:10:09.270Z,8.50
2018-11-04T05:12:37.952Z,8.50
2018-11-04T05:15:07.264Z,8.40
2018-11-04T05:17:36.031Z,8.50
2018-11-04T05:20:05.929Z,8.40
2018-11-04T05:22:34.902Z,8.40
2018-11-04T05:25:03.583Z,8.40
2018-11-04T05:27:32.223Z,8.40
2018-11-04T05:30:00.959Z,8.40
2018-11-04T05:32:29.895Z,8.50
2018-11-04T05:34:58.586Z,8.50
2018-11-04T05:37:27.234Z,8.50
2018-11-04T05:39:55.952Z,8.50
2018-11-04T05:42:24.567Z,8.50
2018-11-04T05:44:53.163Z,8.60
2018-11-04T05:47:22.010Z,8.50
2018-11-04T05:49:50.722Z,8.50
2018-11-04T05:52:19.332Z,8.50
2018-11-04T05:54:47.956Z,8.40
2018-11-04T05:57:16.752Z,8.40
2018-11-04T05:59:45.456Z,8.30
2018-11-04T06:02:14.155Z,8.20
2018-11-04T06:04:42.814Z,8.20
2018-11-04T06:07:11.491Z,8.20
2018-11-04T06:09:40.137Z,8.20
2018-11-04T06:12:08.767Z,8.20
2018-11-04T06:14:37.467Z,8.20
2018-11-04T06:17:06.862Z,8.10
2018-11-04T06:19:35.687Z,8.20
2018-11-04T06:22:04.215Z,8.20
2018-11-04T06:24:32.867Z,8.10
2018-11-04T06:27:01.832Z,8.00
2018-11-04T06:29:30.467Z,8.00
2018-11-04T06:31:59.111Z,8.10
2018-11-04T06:34:27.776Z,8.00
2018-11-04T06:36:56.684Z,8.10
2018-11-04T06:39:25.363Z,8.10
2018-11-04T06:41:53.979Z,8.10
2018-11-04T06:44:22.603Z,8.10
2018-11-04T06:46:51.428Z,8.20
2018-11-04T06:49:20.023Z,8.10
2018-11-04T06:51:48.762Z,8.20
2018-11-04T06:54:17.486Z,8.30
2018-11-04T06:56:46.135Z,8.30
2018-11-04T06:59:14.830Z,8.40
2018-11-04T07:01:43.479Z,8.40
2018-11-04T07:04:21.407Z,8.50
2018-11-04T07:06:50.118Z,8.50
2018-11-04T07:09:19.149Z,8.60
2018-11-04T07:11:48.589Z,8.70
2018-11-04T07:14:17.911Z,8.70
2018-11-04T07:16:46.996Z,8.70
2018-11-04T07:19:16.119Z,8.60
2018-11-04T07:21:44.767Z,8.60
2018-11-04T07:24:13.771Z,8.70
2018-11-04T07:26:42.638Z,8.70
2018-11-04T07:29:11.388Z,8.60
2018-11-04T07:31:41.239Z,8.80
2018-11-04T07:34:10.862Z,8.80
2018-11-04T07:36:39.552Z,8.90
2018-11-04T07:39:10.855Z,9.00
2018-11-04T07:41:39.683Z,9.10
2018-11-04T07:44:08.645Z,9.20
2018-11-04T07:46:37.346Z,9.20
2018-11-04T07:49:06.072Z,9.30
2018-11-04T07:51:35.069Z,9.40
2018-11-04T07:54:03.708Z,9.40
2018-11-04T07:56:32.352Z,9.40
2018-11-04T07:59:01.023Z,9.40
2018-11-04T08:01:29.794Z,9.20
2018-11-04T08:03:58.510Z,9.20
2018-11-04T08:06:27.208Z,9.30
2018-11-04T08:08:55.906Z,9.40
2018-11-04T08:11:24.691Z,9.40
2018-11-04T08:13:53.332Z,9.50
2018-11-04T08:16:21.973Z,9.70
2018-11-04T08:18:50.919Z,9.70
2018-11-04T08:21:19.618Z,9.70
2018-11-04T08:23:48.273Z,9.80
2018-11-04T08:26:16.975Z,9.90
2018-11-04T08:28:45.960Z,10.00
2018-11-04T08:31:15.831Z,10.10
2018-11-04T08:33:44.618Z,10.00
2018-11-04T08:36:13.556Z,10.10
2018-11-04T08:38:42.212Z,10.20
2018-11-04T08:41:11.151Z,10.30
2018-11-04T08:43:39.816Z,10.20
2018-11-04T08:46:08.444Z,10.20
2018-11-04T08:48:37.084Z,10.30
2018-11-04T08:51:05.962Z,10.40
2018-11-04T08:53:35.131Z,10.40
2018-11-04T08:56:03.916Z,10.40
2018-11-04T08:58:32.537Z,10.50
2018-11-04T09:01:01.176Z,10.60
2018-11-04T09:03:29.812Z,10.60
2018-11-04T09:05:58.458Z,10.40
2018-11-04T09:08:27.111Z,10.40
2018-11-04T09:10:55.760Z,10.30
2018-11-04T09:13:24.438Z,10.40
2018-11-04T09:15:53.128Z,10.60
2018-11-04T09:18:21.743Z,10.60
2018-11-04T09:20:50.366Z,10.70
2018-11-04T09:23:22.418Z,10.60
2018-11-04T09:25:50.995Z,10.60
2018-11-04T09:28:19.903Z,10.50
2018-11-04T09:30:48.532Z,10.40
2018-11-04T09:33:17.168Z,10.50
2018-11-04T09:35:46.960Z,10.70
2018-11-04T09:38:15.640Z,10.90
2018-11-04T09:40:44.608Z,11.30
2018-11-04T09:43:13.219Z,11.30
2018-11-04T09:45:41.890Z,11.10
2018-11-04T09:48:10.510Z,11.10
2018-11-04T09:50:39.150Z,11.20
2018-11-04T09:53:07.787Z,11.20
2018-11-04T09:55:36.448Z,11.10
2018-11-04T09:58:05.115Z,11.10
2018-11-04T10:00:34.099Z,11.10
2018-11-04T10:03:02.770Z,11.30
2018-11-04T10:05:31.459Z,11.40
2018-11-04T10:08:00.151Z,11.50
2018-11-04T10:10:29.133Z,11.60
2018-11-04T10:12:57.783Z,11.70
2018-11-04T10:15:26.418Z,11.60
2018-11-04T10:17:55.052Z,11.50
2018-11-04T10:20:23.857Z,11.50
2018-11-04T10:22:52.569Z,11.40
2018-11-04T10:25:21.195Z,11.40
2018-11-04T10:27:49.831Z,11.30
2018-11-04T10:30:18.552Z,11.20
2018-11-04T10:32:47.129Z,11.30
2018-11-04T10:35:15.949Z,11.30
2018-11-04T10:37:44.620Z,11.30
2018-11-04T10:40:13.850Z,11.40
2018-11-04T10:42:42.654Z,11.40
2018-11-04T10:45:11.786Z,11.50
2018-11-04T10:47:40.422Z,11.50
2018-11-04T10:50:10.339Z,11.40
2018-11-04T10:52:39.057Z,11.50
2018-11-04T10:55:08.572Z,11.50
2018-11-04T10:57:37.339Z,11.50
2018-11-04T11:00:13.307Z,11.70
2018-11-04T11:02:41.960Z,11.60
2018-11-04T11:05:10.649Z,11.50
2018-11-04T11:07:39.535Z,11.50
2018-11-04T11:10:09.276Z,11.60
2018-11-04T11:12:38.248Z,11.60
2018-11-04T11:15:07.396Z,11.60
2018-11-04T11:17:36.204Z,11.60
2018-11-04T11:20:06.390Z,11.60
2018-11-04T11:22:35.127Z,11.40
2018-11-04T11:25:03.814Z,11.40
2018-11-04T11:27:32.460Z,11.40
2018-11-04T11:30:01.223Z,11.50
2018-11-04T11:32:29.994Z,11.50
2018-11-04T11:34:58.862Z,11.50
2018-11-04T11:37:27.596Z,11.70
2018-11-04T11:39:56.135Z,11.80
2018-11-04T11:42:24.973Z,11.90
2018-11-04T11:44:53.665Z,11.90
2018-11-04T11:47:22.269Z,11.80
2018-11-04T11:49:51.394Z,11.80
2018-11-04T11:52:20.293Z,11.90
2018-11-04T11:54:48.956Z,11.90
2018-11-04T11:57:17.652Z,11.80
2018-11-04T11:59:46.400Z,11.70
2018-11-04T12:02:15.462Z,11.80
2018-11-04T12:04:44.490Z,11.80
2018-11-04T12:07:13.187Z,11.90
2018-11-04T12:09:41.968Z,11.70
2018-11-04T12:12:10.689Z,11.70
2018-11-04T12:14:39.536Z,11.80
2018-11-04T12:17:08.166Z,11.80
2018-11-04T12:19:37.071Z,11.90
2018-11-04T12:22:05.752Z,11.80
2018-11-04T12:24:34.432Z,11.70
2018-11-04T12:27:03.076Z,11.60
2018-11-04T12:29:31.785Z,11.60
2018-11-04T12:32:00.472Z,11.70
2018-11-04T12:34:29.295Z,11.70
2018-11-04T12:36:58.179Z,11.70
2018-11-04T12:39:27.195Z,11.80
2018-11-04T12:41:56.109Z,11.80
2018-11-04T12:44:24.868Z,11.80
2018-11-04T12:46:54.130Z,11.70
2018-11-04T12:49:22.801Z,11.60
2018-11-04T12:51:51.503Z,11.60
2018-11-04T12:54:20.186Z,11.50
2018-11-04T12:56:48.923Z,11.50
2018-11-04T12:59:18.024Z,11.40
2018-11-04T13:01:46.907Z,11.40
2018-11-04T13:04:15.888Z,11.40
2018-11-04T13:06:44.819Z,11.50
2018-11-04T13:09:13.526Z,11.40
2018-11-04T13:11:42.317Z,11.30
2018-11-04T13:14:10.883Z,11.30
2018-11-04T13:16:39.584Z,11.40
2018-11-04T13:19:08.288Z,11.40
2018-11-04T13:21:36.910Z,11.50
2018-11-04T13:24:06.531Z,11.50
2018-11-04T13:26:35.248Z,11.50
2018-11-04T13:29:03.953Z,11.60
2018-11-04T13:31:32.952Z,11.60
2018-11-04T13:34:01.945Z,11.50
2018-11-04T13:36:30.591Z,11.60
2018-11-04T13:38:59.300Z,11.60
2018-11-04T13:41:27.976Z,11.50
2018-11-04T13:43:56.678Z,11.50
2018-11-04T13:46:26.038Z,11.50
2018-11-04T13:48:55.097Z,11.60
2018-11-04T13:51:24.445Z,11.60
2018-11-04T13:53:53.221Z,11.60
2018-11-04T13:56:22.400Z,11.60
2018-11-04T13:58:52.068Z,11.60
2018-11-04T14:01:21.084Z,11.70
2018-11-04T14:03:49.857Z,11.70
2018-11-04T14:06:18.847Z,11.70
2018-11-04T14:08:47.816Z,11.70
2018-11-04T14:11:16.474Z,11.70
2018-11-04T14:13:45.171Z,11.60
2018-11-04T14:16:13.883Z,11.60
2018-11-04T14:18:42.634Z,11.70
2018-11-04T14:21:11.577Z,11.70
2018-11-04T14:23:40.326Z,11.80
2018-11-04T14:26:09.352Z,11.90
2018-11-04T14:28:37.987Z,11.80
2018-11-04T14:31:06.660Z,11.70
2018-11-04T14:33:35.690Z,11.60
2018-11-04T14:36:04.714Z,11.50
2018-11-04T14:38:33.505Z,11.50
2018-11-04T14:41:02.180Z,11.60
2018-11-04T14:43:30.989Z,11.70
2018-11-04T14:46:00.060Z,11.70
2018-11-04T14:48:28.712Z,11.70
2018-11-04T14:50:58.116Z,11.70
2018-11-04T14:53:26.783Z,11.70
2018-11-04T14:55:56.381Z,11.70
2018-11-04T14:58:25.196Z,11.70
2018-11-04T15:00:53.920Z,11.60
2018-11-04T15:03:22.598Z,11.70
2018-11-04T15:05:51.282Z,11.50
2018-11-04T15:08:20.297Z,11.50
2018-11-04T15:10:49.320Z,11.50
2018-11-04T15:13:18.282Z,11.50
2018-11-04T15:15:47.256Z,11.50
2018-11-04T15:18:15.908Z,11.60
2018-11-04T15:20:44.615Z,11.60
2018-11-04T15:23:13.320Z,11.60
2018-11-04T15:25:42.032Z,11.60
2018-11-04T15:28:10.964Z,11.50
2018-11-04T15:30:40.657Z,11.50
2018-11-04T15:33:09.599Z,11.60
2018-11-04T15:35:38.311Z,11.60
2018-11-04T15:38:06.948Z,11.60
2018-11-04T15:40:35.745Z,11.50
2018-11-04T15:43:04.975Z,11.50
2018-11-04T15:45:34.531Z,11.60
2018-11-04T15:48:03.187Z,11.60
2018-11-04T15:50:32.235Z,11.50
2018-11-04T15:53:00.900Z,11.50
2018-11-04T15:55:29.575Z,11.60
2018-11-04T15:57:58.384Z,11.60
2018-11-04T16:00:27.284Z,11.60
2018-11-04T16:02:56.000Z,11.50
2018-11-04T16:05:24.694Z,11.50
2018-11-04T16:07:53.303Z,11.40
2018-11-04T16:10:21.980Z,11.50
2018-11-04T16:12:50.968Z,11.50
2018-11-04T16:15:19.649Z,11.50
2018-11-04T16:17:48.281Z,11.50
2018-11-04T16:20:17.072Z,11.50
2018-11-04T16:23:00.555Z,11.50
2018-11-04T16:25:29.264Z,11.40
2018-11-04T16:27:58.152Z,11.40
2018-11-04T16:30:27.003Z,11.40
2018-11-04T16:32:55.881Z,11.30
2018-11-04T16:35:24.847Z,11.30
2018-11-04T16:37:53.599Z,11.40
2018-11-04T16:40:22.222Z,11.30
2018-11-04T16:42:50.877Z,11.40
2018-11-04T16:45:19.792Z,11.30
2018-11-04T16:47:48.696Z,11.30
2018-11-04T16:50:18.547Z,11.30
2018-11-04T16:52:47.528Z,11.30
2018-11-04T16:55:16.188Z,11.30
2018-11-04T16:57:44.854Z,11.40
2018-11-04T17:00:13.553Z,11.40
2018-11-04T17:02:42.200Z,11.40
2018-11-04T17:05:11.902Z,11.40
2018-11-04T17:07:40.847Z,11.50
2018-11-04T17:10:11.095Z,11.50
2018-11-04T17:12:40.035Z,11.50
2018-11-04T17:15:11.070Z,11.50
2018-11-04T17:17:40.129Z,11.30
2018-11-04T17:20:15.225Z,11.30
2018-11-04T17:22:44.362Z,11.30
2018-11-04T17:25:13.503Z,11.40
2018-11-04T17:27:42.392Z,11.40
2018-11-04T17:30:13.963Z,11.30
2018-11-04T17:32:42.980Z,11.20
2018-11-04T17:35:13.081Z,11.10
2018-11-04T17:37:43.140Z,11.10
2018-11-04T17:40:12.759Z,11.10
2018-11-04T17:42:41.480Z,11.20
2018-11-04T17:45:11.632Z,11.10
2018-11-04T17:47:40.356Z,11.10
2018-11-04T17:50:13.442Z,11.10
2018-11-04T17:52:42.812Z,11.10
2018-11-04T17:55:12.042Z,11.00
2018-11-04T17:57:40.996Z,11.00
2018-11-04T18:00:10.643Z,11.00
2018-11-04T18:02:40.292Z,11.00
2018-11-04T18:05:09.706Z,11.00
2018-11-04T18:07:38.587Z,11.10
2018-11-04T18:10:07.668Z,11.20
2018-11-04T18:12:36.685Z,11.10
2018-11-04T18:15:06.325Z,11.20
2018-11-04T18:17:35.127Z,11.20
2018-11-04T18:20:04.193Z,11.10
2018-11-04T18:22:33.988Z,11.00
2018-11-04T18:25:02.619Z,11.00
2018-11-04T18:27:31.260Z,11.00
2018-11-04T18:29:59.960Z,11.00
2018-11-04T18:32:28.597Z,11.10
2018-11-04T18:34:57.236Z,11.10
2018-11-04T18:37:27.644Z,11.10
2018-11-04T18:39:56.515Z,11.10
2018-11-04T18:42:25.182Z,11.10
2018-11-04T18:44:53.902Z,11.10
2018-11-04T18:47:22.493Z,11.10
2018-11-04T18:49:51.178Z,11.10
2018-11-04T18:52:20.087Z,11.10
2018-11-04T18:54:48.682Z,11.20
2018-11-04T18:57:17.445Z,11.10
2018-11-04T18:59:46.090Z,11.10
2018-11-04T19:02:14.751Z,11.00
2018-11-04T19:04:43.416Z,11.00
2018-11-04T19:07:12.121Z,11.10
2018-11-04T19:09:40.780Z,11.10
2018-11-04T19:12:09.520Z,11.00
2018-11-04T19:14:38.232Z,11.00
2018-11-04T19:17:06.899Z,11.00
2018-11-04T19:19:35.633Z,11.00
2018-11-04T19:22:04.379Z,10.90
2018-11-04T19:24:33.018Z,10.90
2018-11-04T19:27:01.716Z,10.90
2018-11-04T19:29:30.602Z,10.90
2018-11-04T19:31:59.328Z,11.00
2018-11-04T19:34:28.309Z,10.90
2018-11-04T19:36:56.951Z,10.90
2018-11-04T19:39:25.850Z,10.90
2018-11-04T19:41:54.515Z,10.90
2018-11-04T19:44:23.316Z,10.90
2018-11-04T19:46:52.093Z,10.90
2018-11-04T19:49:21.010Z,11.00
2018-11-04T19:51:49.687Z,11.10
2018-11-04T19:54:18.396Z,11.10
2018-11-04T19:56:47.109Z,11.20
2018-11-04T19:59:15.796Z,11.20
2018-11-04T20:01:44.418Z,11.20
2018-11-04T20:04:13.172Z,11.20
2018-11-04T20:06:41.911Z,11.10
2018-11-04T20:09:13.564Z,11.10
2018-11-04T20:11:42.607Z,11.10
2018-11-04T20:14:17.832Z,11.10
2018-11-04T20:16:47.580Z,11.10
2018-11-04T20:19:21.858Z,11.00
2018-11-04T20:21:50.996Z,11.00
2018-11-04T20:24:25.115Z,11.00
2018-11-04T20:26:53.766Z,11.00
2018-11-04T20:29:23.013Z,11.00
2018-11-04T20:31:57.108Z,11.10
2018-11-04T20:34:25.767Z,11.10
2018-11-04T20:36:54.419Z,11.00
2018-11-04T20:39:28.588Z,11.10
2018-11-04T20:41:57.247Z,11.00
2018-11-04T20:44:30.412Z,11.00
2018-11-04T20:46:59.052Z,11.10
2018-11-04T20:49:33.383Z,11.10
2018-11-04T20:52:02.211Z,11.10
2018-11-04T20:54:31.056Z,11.20
2018-11-04T20:57:05.181Z,11.20
2018-11-04T20:59:33.985Z,11.20
2018-11-04T21:02:02.752Z,11.30
2018-11-04T21:04:31.313Z,11.20
2018-11-04T21:07:00.031Z,11.20
2018-11-04T21:09:28.709Z,11.20
2018-11-04T21:11:57.371Z,11.20
2018-11-04T21:14:26.093Z,11.20
2018-11-04T21:16:54.723Z,11.30
2018-11-04T21:19:24.267Z,11.20
2018-11-04T21:21:52.939Z,11.20
2018-11-04T21:24:21.864Z,11.10
2018-11-04T21:26:50.525Z,11.10
2018-11-04T21:29:19.617Z,11.10
2018-11-04T21:31:48.103Z,11.20
2018-11-04T21:34:16.899Z,11.10
2018-11-04T21:36:45.580Z,11.00
2018-11-04T21:39:14.232Z,11.10
2018-11-04T21:41:42.910Z,11.20
2018-11-04T21:44:11.949Z,11.20
2018-11-04T21:46:40.519Z,11.10
2018-11-04T21:49:09.187Z,11.10
2018-11-04T21:51:37.830Z,11.10
2018-11-04T21:54:06.463Z,11.20
2018-11-04T21:56:35.264Z,11.30
2018-11-04T21:59:03.991Z,11.30
2018-11-04T22:01:32.639Z,11.30
2018-11-04T22:04:01.540Z,11.40
2018-11-04T22:06:30.016Z,11.40
2018-11-04T22:08:58.696Z,11.30
2018-11-04T22:11:27.374Z,11.20
2018-11-04T22:13:56.150Z,11.10
2018-11-04T22:16:55.253Z,11.00
2018-11-04T22:19:24.901Z,11.10
2018-11-04T22:21:54.749Z,11.20
2018-11-04T22:24:23.781Z,11.20
2018-11-04T22:26:52.422Z,11.20
2018-11-04T22:29:21.108Z,11.20
2018-11-04T22:31:50.060Z,11.20
2018-11-04T22:34:18.721Z,11.10
2018-11-04T22:36:47.393Z,11.10
2018-11-04T22:39:16.101Z,11.20
2018-11-04T22:41:44.779Z,11.20
2018-11-04T22:44:13.456Z,11.20
2018-11-04T22:46:42.264Z,11.20
2018-11-04T22:49:10.957Z,11.30
2018-11-04T22:51:39.857Z,11.30
2018-11-04T22:54:08.547Z,11.30
2018-11-04T22:56:37.303Z,11.30
2018-11-04T22:59:06.353Z,11.30
2018-11-04T23:01:35.116Z,11.30
2018-11-04T23:04:03.777Z,11.20
2018-11-04T23:06:32.347Z,11.20
2018-11-04T23:09:00.989Z,11.10
2018-11-04T23:11:29.647Z,11.10
2018-11-04T23:13:58.291Z,11.00
2018-11-04T23:16:26.910Z,11.00
2018-11-04T23:18:55.585Z,11.00
2018-11-04T23:21:24.374Z,11.10
2018-11-04T23:23:53.072Z,11.00
2018-11-04T23:26:21.743Z,11.10
2018-11-04T23:28:50.379Z,11.10
2018-11-04T23:31:19.028Z,11.10
2018-11-04T23:33:47.665Z,11.20
2018-11-04T23:36:16.292Z,11.20
2018-11-04T23:38:44.947Z,11.10
2018-11-04T23:41:20.175Z,11.10
2018-11-04T23:43:48.906Z,11.10
2018-11-04T23:46:17.892Z,11.20
2018-11-04T23:48:46.676Z,11.20
2018-11-04T23:51:15.364Z,11.20
2018-11-04T23:53:44.031Z,11.30
2018-11-04T23:56:12.663Z,11.20
2018-11-04T23:58:41.455Z,11.20
